createdAt,value
2023-03-15T06:31:53.688Z,2.80
2023-03-15T06:34:21.285Z,3.20
2023-03-15T06:36:52.567Z,4.00
2023-03-15T06:39:20.369Z,3.70
2023-03-15T06:54:06.515Z,4.60
2023-03-15T06:56:37.232Z,4.60
2023-03-15T07:08:59.312Z,3.90
2023-03-15T07:11:29.616Z,4.10
2023-03-15T07:16:27.260Z,4.30
2023-03-15T07:18:58.836Z,4.60
2023-03-15T07:21:28.636Z,4.80
2023-03-15T07:23:57.405Z,5.90
2023-03-15T07:28:58.063Z,5.40
2023-03-15T07:33:56.338Z,5.80
2023-03-15T07:41:20.368Z,7.20
2023-03-15T07:43:48.479Z,8.20
2023-03-15T07:46:16.685Z,8.80
2023-03-15T07:48:44.322Z,8.70
2023-03-15T07:51:13.515Z,9.40
2023-03-15T07:56:08.978Z,10.20
2023-03-15T07:58:36.616Z,11.00
2023-03-15T08:01:04.266Z,11.10
2023-03-15T08:08:27.671Z,9.60
2023-03-15T08:10:57.375Z,10.40
2023-03-15T08:13:26.000Z,12.10
2023-03-15T08:15:53.730Z,12.50
2023-03-15T08:18:21.609Z,12.00
2023-03-15T08:23:17.224Z,11.30
2023-03-15T08:25:45.160Z,11.10
2023-03-15T08:30:40.990Z,7.80
2023-03-15T08:33:09.188Z,7.70
2023-03-15T08:35:37.139Z,7.70
2023-03-15T08:38:04.663Z,9.00
2023-03-15T08:45:28.463Z,10.10
2023-03-15T08:48:00.633Z,10.70
2023-03-15T08:50:31.748Z,10.90
2023-03-15T08:52:59.230Z,13.00
2023-03-15T08:55:26.919Z,12.90
2023-03-15T08:57:56.084Z,12.20
2023-03-15T09:00:24.976Z,11.70
2023-03-15T09:05:22.343Z,11.70
2023-03-15T09:07:54.816Z,11.70
2023-03-15T09:10:23.991Z,11.80
2023-03-15T09:12:54.604Z,11.90
2023-03-15T09:15:24.796Z,11.90
2023-03-15T09:17:53.840Z,11.20
2023-03-15T09:20:24.565Z,11.20
2023-03-15T09:22:55.648Z,11.80
2023-03-15T09:25:25.226Z,11.60
2023-03-15T09:27:54.302Z,10.50
2023-03-15T09:30:22.379Z,11.10
2023-03-15T09:32:50.176Z,10.50
2023-03-15T09:35:20.152Z,9.90
2023-03-15T09:37:49.576Z,9.80
2023-03-15T09:40:25.128Z,9.90
2023-03-15T09:43:07.590Z,10.10
2023-03-15T09:45:55.796Z,9.40
2023-03-15T09:48:47.349Z,9.20
2023-03-15T09:51:21.734Z,8.70
2023-03-15T09:54:00.730Z,8.70
2023-03-15T09:56:45.662Z,8.20
2023-03-15T09:59:17.626Z,8.90
2023-03-15T10:01:46.981Z,12.10
2023-03-15T10:04:43.172Z,11.90
2023-03-15T10:07:14.943Z,14.30
2023-03-15T10:12:19.343Z,11.30
2023-03-15T10:15:20.648Z,10.90
2023-03-15T10:18:15.994Z,10.50
2023-03-15T10:20:54.214Z,10.90
2023-03-15T10:23:46.859Z,9.60
2023-03-15T10:26:19.085Z,10.00
2023-03-15T10:28:47.198Z,10.50
2023-03-15T10:31:36.792Z,10.30
2023-03-15T10:34:14.343Z,11.30
2023-03-15T10:37:00.561Z,10.70
2023-03-15T10:39:30.043Z,8.80
2023-03-15T10:42:00.152Z,9.80
2023-03-15T10:44:29.588Z,9.60
2023-03-15T10:47:22.471Z,8.70
2023-03-15T10:49:58.344Z,8.10
2023-03-15T10:52:39.371Z,8.60
2023-03-15T10:55:20.365Z,8.40
2023-03-15T10:58:00.599Z,7.50
2023-03-15T11:00:39.892Z,7.50
2023-03-15T11:03:22.287Z,10.20
2023-03-15T11:06:01.308Z,7.40
2023-03-15T11:08:43.271Z,7.30
2023-03-15T11:11:13.054Z,6.50
2023-03-15T11:14:00.514Z,6.80
2023-03-15T11:16:38.539Z,6.90
2023-03-15T11:19:15.763Z,7.10
2023-03-15T11:21:45.833Z,6.90
2023-03-15T11:24:35.658Z,6.90
2023-03-15T11:27:15.961Z,7.40
2023-03-15T11:29:57.330Z,7.30
2023-03-15T11:32:29.645Z,7.30
2023-03-15T11:35:30.576Z,7.50
2023-03-15T11:38:19.313Z,7.50
2023-03-15T11:40:52.160Z,7.50
2023-03-15T11:43:28.451Z,7.50
2023-03-15T11:46:11.278Z,6.90
2023-03-15T11:48:55.452Z,7.30
2023-03-15T11:51:22.940Z,7.20
2023-03-15T11:54:08.950Z,7.20
2023-03-15T11:57:03.367Z,7.30
2023-03-15T11:59:40.816Z,6.80
2023-03-15T12:02:13.518Z,6.50
2023-03-15T12:04:46.418Z,6.20
2023-03-15T12:07:20.040Z,6.30
2023-03-15T12:09:56.231Z,6.50
2023-03-15T12:12:26.744Z,6.60
2023-03-15T12:15:03.120Z,6.60
2023-03-15T12:17:38.301Z,6.50
2023-03-15T12:20:20.159Z,6.00
2023-03-15T12:22:55.109Z,5.40
2023-03-15T12:25:45.467Z,4.60
2023-03-15T12:28:31.589Z,4.30
2023-03-15T12:31:02.529Z,4.60
2023-03-15T12:33:32.725Z,5.70
2023-03-15T12:36:05.588Z,4.70
2023-03-15T12:38:38.658Z,5.50
2023-03-15T12:41:31.280Z,5.40
2023-03-15T12:44:18.910Z,5.50
2023-03-15T12:46:46.304Z,5.80
2023-03-15T12:49:24.090Z,5.70
2023-03-15T12:52:02.257Z,5.50
2023-03-15T12:54:55.274Z,5.30
2023-03-15T12:57:52.182Z,5.60
2023-03-15T13:00:38.622Z,5.10
2023-03-15T13:03:22.549Z,5.50
2023-03-15T13:06:30.984Z,5.50
2023-03-15T13:09:18.356Z,6.70
2023-03-15T13:12:16.792Z,5.10
2023-03-15T13:15:02.840Z,4.90
2023-03-15T13:17:54.766Z,4.40
2023-03-15T13:20:50.374Z,4.70
2023-03-15T13:23:26.295Z,4.60
2023-03-15T13:26:25.145Z,4.60
2023-03-15T13:29:02.540Z,5.00
2023-03-15T13:31:32.299Z,5.30
2023-03-15T13:34:25.775Z,5.20
2023-03-15T13:37:03.154Z,5.30
2023-03-15T13:39:39.926Z,5.40
2023-03-15T13:42:21.762Z,5.50
2023-03-15T13:45:03.612Z,5.30
2023-03-15T13:47:31.560Z,5.10
2023-03-15T13:49:59.931Z,5.30
2023-03-15T13:52:27.798Z,5.70
2023-03-15T13:54:56.110Z,5.90
2023-03-15T13:57:24.042Z,5.90
2023-03-15T13:59:57.156Z,5.90
2023-03-15T14:02:37.904Z,5.80
2023-03-15T14:05:11.078Z,6.70
2023-03-15T14:07:45.424Z,5.90
2023-03-15T14:10:22.869Z,5.60
2023-03-15T14:12:51.697Z,5.60
2023-03-15T14:15:44.184Z,5.40
2023-03-15T14:18:11.355Z,5.60
2023-03-15T14:20:43.367Z,5.60
2023-03-15T14:23:15.213Z,4.40
2023-03-15T14:25:43.751Z,6.10
2023-03-15T14:28:15.675Z,3.90
2023-03-15T14:30:50.813Z,3.50
2023-03-15T14:33:34.748Z,3.70
2023-03-15T14:36:05.506Z,3.40
2023-03-15T14:38:36.770Z,3.40
2023-03-15T14:41:18.084Z,2.80
2023-03-15T14:46:13.020Z,3.50
2023-03-15T14:48:40.852Z,2.30
2023-03-15T14:51:17.645Z,2.70
2023-03-15T14:53:45.899Z,2.80
2023-03-15T14:56:14.088Z,3.00
2023-03-15T14:58:42.447Z,2.80
2023-03-15T15:01:15.120Z,3.00
2023-03-15T15:03:48.512Z,2.80
2023-03-15T15:06:17.107Z,3.10
2023-03-15T15:08:47.026Z,3.20
2023-03-15T15:11:14.887Z,3.20
2023-03-15T15:13:42.652Z,3.40
2023-03-15T15:16:10.261Z,3.60
2023-03-15T15:18:38.013Z,3.60
2023-03-15T15:21:33.044Z,3.50
2023-03-15T15:24:05.489Z,3.30
2023-03-15T15:26:33.439Z,3.60
2023-03-15T15:29:00.849Z,3.90
2023-03-15T15:31:29.267Z,3.80
2023-03-15T15:36:34.033Z,4.00
2023-03-15T15:39:06.347Z,3.90
2023-03-15T15:41:34.443Z,3.90
2023-03-15T15:44:01.742Z,4.20
2023-03-15T15:51:31.608Z,3.90
2023-03-15T15:54:00.780Z,4.00
2023-03-15T15:56:34.450Z,4.00
2023-03-15T15:59:04.554Z,3.70
2023-03-15T16:01:32.918Z,4.00
2023-03-15T16:04:02.218Z,4.20
2023-03-15T16:06:30.499Z,4.20
2023-03-15T16:13:56.575Z,4.20
2023-03-15T16:18:51.295Z,4.20
2023-03-15T16:21:42.801Z,3.80
2023-03-15T16:24:20.200Z,4.20
2023-03-15T16:26:48.770Z,4.20
2023-03-15T16:29:19.246Z,4.30
2023-03-15T16:34:16.401Z,4.20
2023-03-15T16:36:48.535Z,4.20
2023-03-15T16:39:16.796Z,4.00
2023-03-15T16:44:13.581Z,4.00
2023-03-15T16:46:41.046Z,3.90
2023-03-15T16:49:08.995Z,4.00
2023-03-15T16:51:40.197Z,3.80
2023-03-15T16:54:19.646Z,3.80
2023-03-15T16:56:49.396Z,3.70
2023-03-15T16:59:17.715Z,3.90
